Time;durP1;ratioP1;P1;durP2;ratioP2;P2;SDS_P1;SDS_P2;PMS_P1;PMS_P2;Temp;Humidity;BMP_temperature;BMP_pressure;BME280_temperature;BME280_humidity;BME280_pressure;Samples;Min_cycle;Max_cycle;Signal;HPM_P1;HPM_P2
2022/01/03 06:49:05;;;;;;;12.32;2.42;;;;;;;;;;10592530;27;20455;-82
2022/01/03 06:54:07;;;;;;;9.35;1.80;;;;;;;;;;10590575;28;20034;-82
2022/01/03 06:59:09;;;;;;;7.97;2.05;;;;;;;;;;10589643;28;20016;-83
2022/01/03 07:04:10;;;;;;;8.05;1.80;;;;;;;;;;10588623;28;20024;-81
2022/01/03 07:09:11;;;;;;;9.25;2.72;;;;;;;;;;10589406;28;20474;-83
2022/01/03 07:19:25;;;;;;;8.75;2.50;;;;;;;;;;10591237;28;20038;-82
2022/01/03 07:24:26;;;;;;;8.82;2.40;;;;;;;;;;10589596;28;20028;-82
2022/01/03 07:29:27;;;;;;;7.32;2.03;;;;;;;;;;10587926;28;20070;-82
2022/01/03 07:34:28;;;;;;;8.15;2.33;;;;;;;;;;10589159;28;20092;-81
2022/01/03 07:39:30;;;;;;;7.43;1.88;;;;;;;;;;10590920;28;20157;-82
2022/01/03 07:44:31;;;;;;;8.65;2.17;;;;;;;;;;10590039;28;20034;-82
2022/01/03 07:49:32;;;;;;;;;;;;;;;;;;10593176;28;20024;-82
2022/01/03 07:54:33;;;;;;;8.68;2.38;;;;;;;;;;10591799;28;20273;-81
2022/01/03 07:59:34;;;;;;;11.15;3.13;;;;;;;;;;10573785;28;20023;-82
2022/01/03 08:04:36;;;;;;;;;;;;;;;;;;10566366;28;20035;-84
2022/01/03 08:09:37;;;;;;;7.50;2.30;;;;;;;;;;10589012;28;19896;-80
2022/01/03 08:14:39;;;;;;;;;;;;;;;;;;10588269;28;20088;-81
2022/01/03 08:19:47;;;;;;;7.13;2.03;;;;;;;;;;10568573;28;20304;-82
2022/01/03 08:25:08;;;;;;;5.80;2.13;;;;;;;;;;10564256;28;20036;-81
2022/01/03 08:30:09;;;;;;;;;;;;;;;;;;10561144;28;20056;-81
2022/01/03 08:35:12;;;;;;;8.35;2.20;;;;;;;;;;10561453;28;19904;-82
2022/01/03 08:41:00;;;;;;;5.93;1.80;;;;;;;;;;10552218;28;20031;-82
2022/01/03 08:46:24;;;;;;;7.88;2.55;;;;;;;;;;10385237;28;20061;-80
2022/01/03 08:51:28;;;;;;;6.55;2.95;;;;;;;;;;10387347;28;20041;-80
2022/01/03 08:56:29;;;;;;;8.32;3.35;;;;;;;;;;10549911;28;20038;-82
2022/01/03 09:02:04;;;;;;;7.47;3.22;;;;;;;;;;10565168;28;20045;-82
2022/01/03 09:07:05;;;;;;;9.45;3.38;;;;;;;;;;10533042;28;20036;-81
2022/01/03 09:12:08;;;;;;;7.07;3.30;;;;;;;;;;10557217;28;20064;-82
2022/01/03 09:17:09;;;;;;;8.02;3.22;;;;;;;;;;10540612;28;20035;-82
2022/01/03 09:22:25;;;;;;;9.27;3.05;;;;;;;;;;10557762;28;20080;-84
2022/01/03 09:32:56;;;;;;;5.45;2.30;;;;;;;;;;10555925;28;20032;-82
2022/01/03 09:38:17;;;;;;;9.88;2.45;;;;;;;;;;10552438;28;20032;-80
2022/01/03 09:43:55;;;;;;;7.40;2.08;;;;;;;;;;10555739;28;20128;-81
2022/01/03 09:48:57;;;;;;;7.50;2.40;;;;;;;;;;10557094;28;20033;-81
2022/01/03 09:54:04;;;;;;;6.47;2.50;;;;;;;;;;10563287;28;20445;-81
2022/01/03 09:59:05;;;;;;;8.18;2.40;;;;;;;;;;10565783;28;20119;-80
2022/01/03 10:04:06;;;;;;;11.13;2.50;;;;;;;;;;10565203;28;20056;-81
2022/01/03 10:09:07;;;;;;;11.38;3.10;;;;;;;;;;10554165;28;20495;-82
2022/01/03 10:14:11;;;;;;;7.65;2.28;;;;;;;;;;10575918;28;20512;-81
2022/01/03 10:19:13;;;;;;;10.27;3.00;;;;;;;;;;10561958;28;20040;-82
2022/01/03 10:24:15;;;;;;;11.38;3.53;;;;;;;;;;10585711;28;20054;-80
2022/01/03 10:29:23;;;;;;;9.50;3.17;;;;;;;;;;10555581;28;20028;-81
2022/01/03 10:34:25;;;;;;;8.18;2.63;;;;;;;;;;10556807;28;20024;-82
2022/01/03 10:39:32;;;;;;;8.77;2.88;;;;;;;;;;10562226;28;20026;-79
2022/01/03 10:44:36;;;;;;;8.75;3.13;;;;;;;;;;10558866;28;20032;-80
2022/01/03 10:49:38;;;;;;;7.40;2.65;;;;;;;;;;10557898;28;20029;-80
2022/01/03 10:54:43;;;;;;;8.20;2.85;;;;;;;;;;10560218;28;20028;-81
2022/01/03 10:59:45;;;;;;;8.13;2.85;;;;;;;;;;10553222;28;20394;-80
2022/01/03 11:04:53;;;;;;;7.72;3.03;;;;;;;;;;10548472;28;20124;-80
2022/01/03 11:15:25;;;;;;;9.27;3.60;;;;;;;;;;10556594;28;20028;-82
2022/01/03 11:20:27;;;;;;;6.95;3.05;;;;;;;;;;10560027;28;20024;-82
2022/01/03 11:25:32;;;;;;;9.13;2.80;;;;;;;;;;10563088;28;20055;-82
2022/01/03 11:30:33;;;;;;;10.27;3.22;;;;;;;;;;10560290;28;20193;-80
2022/01/03 11:35:36;;;;;;;8.50;2.88;;;;;;;;;;10566341;28;20032;-80
2022/01/03 11:40:36;;;;;;;7.30;2.72;;;;;;;;;;10562860;28;20028;-81
2022/01/03 11:45:38;;;;;;;7.38;2.70;;;;;;;;;;10566120;28;20059;-81
2022/01/03 11:50:39;;;;;;;11.60;3.05;;;;;;;;;;10574589;22;20036;-84
2022/01/03 11:55:42;;;;;;;7.82;2.67;;;;;;;;;;10501353;28;20037;-84
2022/01/03 12:06:28;;;;;;;9.55;3.47;;;;;;;;;;10582919;28;20036;-85
2022/01/03 12:11:30;;;;;;;11.02;5.40;;;;;;;;;;10548221;28;20020;-84
2022/01/03 12:16:40;;;;;;;12.93;7.10;;;;;;;;;;10540366;28;20072;-85
2022/01/03 12:21:47;;;;;;;10.70;3.97;;;;;;;;;;10547001;28;20225;-84
2022/01/03 12:27:08;;;;;;;10.40;5.95;;;;;;;;;;10545878;28;20278;-84
2022/01/03 12:32:09;;;;;;;8.93;5.13;;;;;;;;;;10548853;28;20153;-84
2022/01/03 12:37:16;;;;;;;;;;;;;;;;;;10549983;28;20032;-85
2022/01/03 12:42:41;;;;;;;8.77;3.95;;;;;;;;;;10568179;28;19925;-85
2022/01/03 12:47:53;;;;;;;14.35;6.45;;;;;;;;;;10555248;28;20028;-85
2022/01/03 12:52:58;;;;;;;10.23;3.95;;;;;;;;;;10551573;28;20028;-84
2022/01/03 12:58:06;;;;;;;11.35;4.57;;;;;;;;;;10551095;28;20025;-84
2022/01/03 13:03:30;;;;;;;12.20;4.00;;;;;;;;;;10553829;28;20034;-83
2022/01/03 13:08:41;;;;;;;8.18;3.13;;;;;;;;;;10558532;28;20122;-84
2022/01/03 13:14:24;;;;;;;8.60;3.15;;;;;;;;;;10549747;28;20452;-84
2022/01/03 13:19:30;;;;;;;8.68;3.50;;;;;;;;;;10547122;28;20075;-85
2022/01/03 13:25:02;;;;;;;7.53;3.25;;;;;;;;;;10533985;28;20036;-84
2022/01/03 13:41:51;;;;;;;7.35;2.92;;;;;;;;;;10351885;28;20042;-84
2022/01/03 13:52:26;;;;;;;6.63;2.55;;;;;;;;;;10556506;28;20408;-83
2022/01/03 13:57:42;;;;;;;6.20;2.30;;;;;;;;;;10537920;28;20017;-85
2022/01/03 14:02:50;;;;;;;6.25;2.03;;;;;;;;;;10552760;28;20500;-85
2022/01/03 14:08:05;;;;;;;8.13;2.88;;;;;;;;;;10568183;28;20031;-84
2022/01/03 14:13:10;;;;;;;6.18;2.22;;;;;;;;;;10551335;28;20027;-84
2022/01/03 14:18:11;;;;;;;7.97;3.38;;;;;;;;;;10548999;28;20428;-83
2022/01/03 14:23:33;;;;;;;7.05;2.33;;;;;;;;;;10568932;28;20117;-83
2022/01/03 14:28:34;;;;;;;7.20;2.10;;;;;;;;;;10568121;28;20040;-84
2022/01/03 14:33:39;;;;;;;6.32;2.05;;;;;;;;;;10569636;28;20027;-84
2022/01/03 14:39:18;;;;;;;8.70;4.32;;;;;;;;;;10570140;28;20028;-84
2022/01/03 14:44:23;;;;;;;4.10;2.00;;;;;;;;;;10479668;28;20049;-83
2022/01/03 14:49:27;;;;;;;5.88;1.92;;;;;;;;;;10543422;28;20032;-83
2022/01/03 14:54:32;;;;;;;4.45;1.90;;;;;;;;;;10531143;28;20044;-84
2022/01/03 14:59:49;;;;;;;7.15;2.10;;;;;;;;;;10547905;28;20028;-84
2022/01/03 15:10:18;;;;;;;4.35;1.75;;;;;;;;;;10584134;28;20024;-83
2022/01/03 15:15:22;;;;;;;6.65;2.28;;;;;;;;;;10558067;28;20129;-83
2022/01/03 15:20:25;;;;;;;5.15;2.00;;;;;;;;;;10576449;28;20054;-83
2022/01/03 15:25:28;;;;;;;4.95;1.65;;;;;;;;;;10555286;28;20032;-84
2022/01/03 15:30:37;;;;;;;5.72;1.55;;;;;;;;;;10572075;28;20054;-83
2022/01/03 15:35:38;;;;;;;4.47;1.30;;;;;;;;;;10553054;28;20044;-82
2022/01/03 15:40:41;;;;;;;;;;;;;;;;;;10555527;28;20031;-82
2022/01/03 15:45:42;;;;;;;2.92;1.65;;;;;;;;;;10572825;28;19920;-82
2022/01/03 15:50:42;;;;;;;;;;;;;;;;;;10558936;28;20496;-84
2022/01/03 15:55:44;;;;;;;4.32;1.40;;;;;;;;;;10550041;28;20445;-82
2022/01/03 16:00:44;;;;;;;;;;;;;;;;;;10546835;28;20397;-83
2022/01/03 16:05:52;;;;;;;6.22;3.75;;;;;;;;;;10553487;28;19919;-83
2022/01/03 16:10:53;;;;;;;2.30;1.17;;;;;;;;;;10552143;28;20039;-83
2022/01/03 16:15:54;;;;;;;;;;;;;;;;;;10553793;28;20490;-83
2022/01/03 16:20:55;;;;;;;3.35;1.50;;;;;;;;;;10550760;28;19971;-83
2022/01/03 16:25:56;;;;;;;3.90;1.65;;;;;;;;;;10550676;28;20032;-83
2022/01/03 16:30:58;;;;;;;4.30;2.10;;;;;;;;;;10550153;28;20020;-83
2022/01/03 16:35:59;;;;;;;5.00;1.92;;;;;;;;;;10527939;28;20049;-84
2022/01/03 16:41:00;;;;;;;3.25;1.52;;;;;;;;;;10547722;28;20032;-83
2022/01/03 16:46:01;;;;;;;3.25;2.10;;;;;;;;;;10547921;28;20097;-83
2022/01/03 16:51:02;;;;;;;2.95;1.33;;;;;;;;;;10544554;28;20031;-83
2022/01/03 16:56:03;;;;;;;3.33;1.60;;;;;;;;;;10549236;28;20031;-83
2022/01/03 17:01:04;;;;;;;3.38;1.90;;;;;;;;;;10550445;28;20081;-82
2022/01/03 17:06:07;;;;;;;2.53;1.40;;;;;;;;;;10548631;28;20028;-82
2022/01/03 17:11:24;;;;;;;2.25;1.20;;;;;;;;;;10551721;28;20091;-83
2022/01/03 17:16:33;;;;;;;3.35;1.63;;;;;;;;;;10544338;28;20119;-84
2022/01/03 17:21:34;;;;;;;4.25;1.60;;;;;;;;;;10546767;28;20028;-85
2022/01/03 17:54:51;;;;;;;3.47;1.80;;;;;;;;;;10507441;22;20044;-85
2022/01/03 17:59:52;;;;;;;2.65;1.70;;;;;;;;;;10503614;28;20027;-85
2022/01/03 18:04:53;;;;;;;3.40;1.70;;;;;;;;;;10502147;28;20033;-85
2022/01/03 18:09:54;;;;;;;4.05;1.80;;;;;;;;;;10503650;28;20115;-85
2022/01/03 18:14:55;;;;;;;;;;;;;;;;;;10503105;28;20545;-86
2022/01/03 18:19:56;;;;;;;2.28;1.50;;;;;;;;;;10500195;28;19904;-85
2022/01/03 18:24:57;;;;;;;;;;;;;;;;;;10513716;28;20025;-84
2022/01/03 18:29:58;;;;;;;4.15;2.08;;;;;;;;;;10515970;28;19947;-85
2022/01/03 18:35:01;;;;;;;3.95;2.75;;;;;;;;;;10512271;28;20036;-84
2022/01/03 18:40:03;;;;;;;3.53;2.03;;;;;;;;;;10514195;28;20024;-85
2022/01/03 18:45:04;;;;;;;3.20;2.00;;;;;;;;;;10517668;28;20147;-85
2022/01/03 18:50:16;;;;;;;2.72;1.67;;;;;;;;;;10518456;28;20025;-84
2022/01/03 18:55:18;;;;;;;3.58;2.20;;;;;;;;;;10509738;28;20048;-82
2022/01/03 19:00:21;;;;;;;3.10;2.00;;;;;;;;;;10547047;28;20016;-81
2022/01/03 19:05:24;;;;;;;4.40;3.03;;;;;;;;;;10536016;28;20491;-85
2022/01/03 19:10:25;;;;;;;4.68;2.83;;;;;;;;;;10532528;28;20031;-84
2022/01/03 19:15:31;;;;;;;4.45;3.00;;;;;;;;;;10514737;28;20084;-85
2022/01/03 19:20:37;;;;;;;3.83;1.95;;;;;;;;;;10516312;28;20209;-85
2022/01/03 19:25:38;;;;;;;3.47;2.53;;;;;;;;;;10515671;28;20025;-85
2022/01/03 19:30:41;;;;;;;4.22;2.75;;;;;;;;;;10513467;28;20020;-84
2022/01/03 19:41:02;;;;;;;2.50;1.65;;;;;;;;;;10526172;28;20036;-85
2022/01/03 19:46:03;;;;;;;3.15;1.52;;;;;;;;;;10497799;28;20036;-85
2022/01/03 19:51:31;;;;;;;4.55;2.45;;;;;;;;;;10499712;28;20533;-86
2022/01/03 19:56:33;;;;;;;4.13;3.20;;;;;;;;;;10520044;28;20044;-86
2022/01/03 20:01:46;;;;;;;4.88;2.60;;;;;;;;;;10505986;28;20029;-86
2022/01/03 20:06:47;;;;;;;5.00;2.90;;;;;;;;;;10504980;28;20371;-86
2022/01/03 20:11:48;;;;;;;2.75;1.90;;;;;;;;;;10506241;28;20103;-86
2022/01/03 20:16:49;;;;;;;4.00;2.50;;;;;;;;;;10502639;28;20129;-85
2022/01/03 20:21:51;;;;;;;4.05;2.70;;;;;;;;;;10502057;28;20029;-85
2022/01/03 20:26:53;;;;;;;3.85;2.70;;;;;;;;;;10503555;28;20024;-85
2022/01/03 20:31:56;;;;;;;3.10;2.17;;;;;;;;;;10520910;28;20025;-84
2022/01/03 20:36:57;;;;;;;;;;;;;;;;;;10498717;28;20123;-86
2022/01/03 20:41:58;;;;;;;4.38;2.67;;;;;;;;;;10500584;28;20399;-85
2022/01/03 20:46:59;;;;;;;4.85;3.20;;;;;;;;;;10500987;28;20035;-85
2022/01/03 20:52:20;;;;;;;4.85;3.22;;;;;;;;;;10519182;28;20032;-85
2022/01/03 20:57:22;;;;;;;4.00;2.65;;;;;;;;;;10424814;28;20063;-85
2022/01/03 21:02:23;;;;;;;3.35;1.80;;;;;;;;;;10494254;28;20025;-85
2022/01/03 21:07:24;;;;;;;3.10;1.92;;;;;;;;;;10503987;28;20044;-83
2022/01/03 21:12:31;;;;;;;3.78;2.40;;;;;;;;;;10514781;28;20029;-85
